Time;durP1;ratioP1;P1;durP2;ratioP2;P2;SDS_P1;SDS_P2;PMS_P1;PMS_P2;Temp;Humidity;BMP_temperature;BMP_pressure;BME280_temperature;BME280_humidity;BME280_pressure;Samples;Min_cycle;Max_cycle;Signal;HPM_P1;HPM_P2
2022/07/25 00:00:22;;;;;;;;;;;;;;;31.83;32.50;99690.72;4417972;32;20541;-68
2022/07/25 00:02:47;;;;;;;;;;;;;;;31.87;32.44;99696.84;4415643;32;19959;-68
2022/07/25 00:05:13;;;;;;;;;;;;;;;31.44;33.14;99700.00;4416224;32;19988;-68
2022/07/25 00:07:38;;;;;;;;;;;;;;;31.50;33.17;99697.56;4417282;32;19989;-68
2022/07/25 00:10:04;;;;;;;;;;;;;;;31.95;32.31;99691.62;4414108;32;20591;-68
2022/07/25 00:12:30;;;;;;;;;;;;;;;31.26;33.42;99693.47;4415952;32;19957;-68
2022/07/25 00:14:55;;;;;;;;;;;;;;;31.80;32.84;99691.91;4414183;32;19994;-68
2022/07/25 00:17:21;;;;;;;;;;;;;;;31.69;32.78;99691.75;4415801;32;20004;-68
2022/07/25 00:19:47;;;;;;;;;;;;;;;31.70;32.77;99682.41;4413864;32;20000;-68
2022/07/25 00:22:13;;;;;;;;;;;;;;;31.94;32.57;99677.69;4417282;32;21192;-66
2022/07/25 00:24:38;;;;;;;;;;;;;;;32.18;32.27;99674.44;4416598;32;20019;-68
2022/07/25 00:27:04;;;;;;;;;;;;;;;32.31;32.16;99670.28;4416492;32;20281;-67
2022/07/25 00:29:29;;;;;;;;;;;;;;;31.86;32.90;99668.34;4412831;32;19997;-67
2022/07/25 00:31:55;;;;;;;;;;;;;;;31.76;33.15;99671.25;4413431;32;19968;-67
2022/07/25 00:34:20;;;;;;;;;;;;;;;31.76;33.13;99677.06;4414556;32;20074;-67
2022/07/25 00:36:46;;;;;;;;;;;;;;;31.61;33.39;99670.75;4416369;32;19993;-67
2022/07/25 00:39:12;;;;;;;;;;;;;;;31.46;33.67;99671.81;4416063;32;19949;-67
2022/07/25 00:41:37;;;;;;;;;;;;;;;31.38;33.80;99676.25;4413659;32;20038;-68
2022/07/25 00:44:03;;;;;;;;;;;;;;;31.69;33.53;99686.69;4415013;32;19954;-67
2022/07/25 00:46:29;;;;;;;;;;;;;;;31.53;33.85;99676.72;4414784;32;20435;-67
2022/07/25 00:48:54;;;;;;;;;;;;;;;31.33;33.89;99686.03;4412592;32;19953;-67
2022/07/25 00:51:20;;;;;;;;;;;;;;;31.28;34.09;99679.13;4417880;32;20421;-67
2022/07/25 00:53:45;;;;;;;;;;;;;;;31.48;33.97;99679.94;4413434;32;20326;-67
2022/07/25 00:56:11;;;;;;;;;;;;;;;31.30;34.10;99673.50;4414249;32;19972;-67
2022/07/25 00:58:36;;;;;;;;;;;;;;;31.60;33.79;99681.63;4415263;32;20008;-67
2022/07/25 01:01:06;;;;;;;;;;;;;;;31.55;33.88;99671.06;4415963;32;19972;-67
2022/07/25 01:03:32;;;;;;;;;;;;;;;31.79;33.44;99667.13;4413009;32;19989;-67
2022/07/25 01:05:58;;;;;;;;;;;;;;;32.10;32.78;99670.16;4415405;32;20000;-67
2022/07/25 01:08:24;;;;;;;;;;;;;;;32.00;32.80;99666.50;4417176;32;20033;-67
2022/07/25 01:10:50;;;;;;;;;;;;;;;31.81;33.24;99661.47;4416917;32;19954;-67
2022/07/25 01:13:15;;;;;;;;;;;;;;;31.95;33.00;99653.03;4416724;32;20038;-67
2022/07/25 01:15:42;;;;;;;;;;;;;;;32.36;32.25;99654.66;4421976;32;20284;-67
2022/07/25 01:18:07;;;;;;;;;;;;;;;32.05;32.88;99651.63;4414511;32;20327;-67
2022/07/25 01:20:34;;;;;;;;;;;;;;;31.68;33.08;99652.38;4417771;32;20013;-67
2022/07/25 01:22:59;;;;;;;;;;;;;;;31.49;33.42;99661.88;4419707;32;20023;-67
2022/07/25 01:25:25;;;;;;;;;;;;;;;31.51;33.25;99661.28;4419265;32;19953;-67
2022/07/25 01:27:52;;;;;;;;;;;;;;;31.69;33.25;99668.50;4416442;32;19946;-67
2022/07/25 01:30:18;;;;;;;;;;;;;;;31.56;33.46;99655.16;4417622;32;19994;-67
2022/07/25 01:32:43;;;;;;;;;;;;;;;32.00;32.75;99664.34;4415360;32;20431;-68
2022/07/25 01:35:09;;;;;;;;;;;;;;;31.96;32.74;99660.38;4416653;32;20055;-67
2022/07/25 01:37:35;;;;;;;;;;;;;;;31.53;33.35;99668.00;4417129;32;20355;-67
2022/07/25 01:40:01;;;;;;;;;;;;;;;31.78;33.02;99656.84;4416041;32;19950;-67
2022/07/25 01:42:27;;;;;;;;;;;;;;;31.71;33.07;99657.75;4415141;32;20003;-67
2022/07/25 01:44:52;;;;;;;;;;;;;;;31.39;33.54;99658.22;4415713;32;20355;-67
2022/07/25 01:47:18;;;;;;;;;;;;;;;31.72;32.82;99659.28;4416063;32;20421;-67
2022/07/25 01:49:43;;;;;;;;;;;;;;;31.56;33.21;99672.59;4414579;32;20350;-67
2022/07/25 01:52:09;;;;;;;;;;;;;;;31.70;32.82;99667.09;4416755;32;20460;-67
2022/07/25 01:54:35;;;;;;;;;;;;;;;31.11;33.81;99653.06;4416149;32;19993;-67
2022/07/25 01:57:00;;;;;;;;;;;;;;;31.67;33.02;99660.38;4415834;32;20276;-67
2022/07/25 01:59:26;;;;;;;;;;;;;;;32.06;32.31;99664.81;4416891;32;20020;-67
2022/07/25 02:01:51;;;;;;;;;;;;;;;31.60;32.81;99669.25;4415827;32;19974;-67
2022/07/25 02:04:16;;;;;;;;;;;;;;;31.80;32.56;99664.94;4417600;32;19995;-67
2022/07/25 02:06:42;;;;;;;;;;;;;;;31.64;32.67;99652.88;4418224;32;19991;-67
2022/07/25 02:09:08;;;;;;;;;;;;;;;32.01;32.08;99644.75;4416635;32;20023;-67
2022/07/25 02:11:33;;;;;;;;;;;;;;;31.12;33.28;99651.69;4414824;32;20229;-67
2022/07/25 02:13:59;;;;;;;;;;;;;;;31.38;32.95;99638.47;4420456;32;20093;-67
2022/07/25 02:16:25;;;;;;;;;;;;;;;31.51;32.91;99638.78;4414884;32;20283;-67
2022/07/25 02:18:51;;;;;;;;;;;;;;;31.06;33.39;99633.78;4414704;32;19976;-67
2022/07/25 02:21:16;;;;;;;;;;;;;;;31.74;32.55;99623.75;4416729;32;19988;-67
2022/07/25 02:23:42;;;;;;;;;;;;;;;31.18;33.26;99613.59;4415736;32;20295;-67
2022/07/25 02:26:08;;;;;;;;;;;;;;;31.58;32.62;99602.19;4414472;32;20339;-67
2022/07/25 02:28:33;;;;;;;;;;;;;;;31.51;32.65;99585.66;4415338;32;20023;-67
2022/07/25 02:30:59;;;;;;;;;;;;;;;31.12;33.22;99584.06;4416869;32;20013;-67
2022/07/25 02:33:25;;;;;;;;;;;;;;;30.94;33.51;99600.09;4416191;32;19992;-67
2022/07/25 02:35:50;;;;;;;;;;;;;;;30.83;33.72;99602.22;4416568;32;19949;-67
2022/07/25 02:38:19;;;;;;;;;;;;;;;30.56;33.95;99595.66;4417281;32;19988;-68
2022/07/25 02:40:45;;;;;;;;;;;;;;;30.38;34.62;99605.84;4416805;32;19972;-67
2022/07/25 02:43:11;;;;;;;;;;;;;;;30.36;34.66;99610.69;4415576;32;20000;-67
2022/07/25 02:45:36;;;;;;;;;;;;;;;30.67;33.95;99609.63;4418310;32;20364;-67
2022/07/25 02:48:02;;;;;;;;;;;;;;;30.83;33.78;99605.13;4415529;32;20113;-67
2022/07/25 02:50:28;;;;;;;;;;;;;;;30.95;33.67;99599.47;4415668;32;20017;-67
2022/07/25 02:52:54;;;;;;;;;;;;;;;31.12;33.28;99610.22;4414264;32;20066;-67
2022/07/25 02:55:19;;;;;;;;;;;;;;;31.35;32.87;99613.50;4415977;32;19987;-66
2022/07/25 02:57:48;;;;;;;;;;;;;;;31.57;32.59;99612.28;4415113;32;19997;-66
2022/07/25 03:00:14;;;;;;;;;;;;;;;31.30;33.03;99620.37;4416246;32;19958;-67
2022/07/25 03:02:40;;;;;;;;;;;;;;;31.27;32.86;99613.63;4415673;32;20008;-67
2022/07/25 03:05:07;;;;;;;;;;;;;;;31.55;32.29;99610.00;4415776;32;20003;-67
2022/07/25 03:07:35;;;;;;;;;;;;;;;31.88;31.88;99621.94;4415274;32;19989;-67
2022/07/25 03:10:01;;;;;;;;;;;;;;;31.68;32.11;99615.34;4416969;32;20285;-68
2022/07/25 03:12:28;;;;;;;;;;;;;;;31.70;32.09;99624.25;4416663;32;20340;-68
2022/07/25 03:14:54;;;;;;;;;;;;;;;31.76;31.97;99615.19;4412885;32;20008;-68
2022/07/25 03:17:19;;;;;;;;;;;;;;;31.51;32.38;99621.34;4416677;32;19973;-68
2022/07/25 03:19:45;;;;;;;;;;;;;;;31.47;32.58;99612.28;4416021;32;20194;-68
2022/07/25 03:22:10;;;;;;;;;;;;;;;31.97;31.77;99595.72;4417373;32;20381;-68
2022/07/25 03:24:36;;;;;;;;;;;;;;;31.88;31.83;99598.69;4415874;32;20650;-68
2022/07/25 03:27:02;;;;;;;;;;;;;;;32.29;31.19;99600.25;4417375;32;20335;-67
2022/07/25 03:29:27;;;;;;;;;;;;;;;32.47;30.97;99604.50;4414166;32;19950;-68
2022/07/25 03:31:53;;;;;;;;;;;;;;;32.46;31.05;99608.81;4416768;32;19957;-67
2022/07/25 03:34:18;;;;;;;;;;;;;;;32.41;30.86;99607.75;4414801;32;20027;-67
2022/07/25 03:36:44;;;;;;;;;;;;;;;32.80;30.47;99593.00;4412925;32;19958;-67
2022/07/25 03:39:10;;;;;;;;;;;;;;;32.72;30.58;99601.16;4414931;32;19988;-68
2022/07/25 03:41:35;;;;;;;;;;;;;;;32.60;30.73;99590.19;4415597;32;19989;-67
2022/07/25 03:44:00;;;;;;;;;;;;;;;32.61;30.73;99597.53;4417115;32;20001;-68
2022/07/25 03:46:26;;;;;;;;;;;;;;;32.09;31.11;99596.63;4416030;32;19994;-68
2022/07/25 03:48:51;;;;;;;;;;;;;;;32.31;30.82;99597.50;4413907;32;19983;-68
2022/07/25 03:51:17;;;;;;;;;;;;;;;31.61;31.96;99589.31;4418380;32;19946;-68
2022/07/25 03:54:14;;;;;;;;;;;;;;;31.92;31.38;99587.31;4416402;32;19966;-67
2022/07/25 03:56:32;;;;;;;;;;;;;;;31.66;31.58;99586.09;4414237;32;20032;-67
2022/07/25 03:58:57;;;;;;;;;;;;;;;31.47;31.83;99609.38;4413758;32;20056;-67
2022/07/25 04:01:23;;;;;;;;;;;;;;;31.74;31.44;99604.16;4416601;32;19973;-67
2022/07/25 04:03:49;;;;;;;;;;;;;;;31.67;31.71;99605.09;4416079;32;20382;-67
2022/07/25 04:06:14;;;;;;;;;;;;;;;31.39;31.77;99600.06;4415091;32;20020;-67
2022/07/25 04:08:40;;;;;;;;;;;;;;;31.66;31.43;99599.91;4415941;32;19964;-68
2022/07/25 04:11:07;;;;;;;;;;;;;;;31.77;31.14;99602.94;4415501;32;19996;-67
2022/07/25 04:13:38;;;;;;;;;;;;;;;31.85;31.04;99602.81;4413599;32;20978;-67
2022/07/25 04:16:07;;;;;;;;;;;;;;;31.79;30.95;99605.25;4414870;32;20011;-67
2022/07/25 04:18:32;;;;;;;;;;;;;;;31.58;31.34;99605.09;4413572;32;19958;-67
2022/07/25 04:21:07;;;;;;;;;;;;;;;31.57;31.22;99592.69;4414528;32;19954;-67
2022/07/25 04:23:43;;;;;;;;;;;;;;;31.08;31.78;99575.81;4414482;32;20029;-67
2022/07/25 04:26:19;;;;;;;;;;;;;;;30.94;31.62;99577.62;4416171;32;20571;-67
2022/07/25 04:28:45;;;;;;;;;;;;;;;30.95;31.80;99587.13;4420868;32;20248;-67
2022/07/25 04:31:11;;;;;;;;;;;;;;;30.79;32.04;99583.69;4413707;32;19976;-67
2022/07/25 04:33:37;;;;;;;;;;;;;;;30.78;32.07;99585.84;4417125;32;19949;-67
2022/07/25 04:36:03;;;;;;;;;;;;;;;30.20;33.01;99577.47;4414740;32;19964;-67
2022/07/25 04:38:28;;;;;;;;;;;;;;;30.56;32.48;99577.50;4412953;32;20010;-67
2022/07/25 04:40:55;;;;;;;;;;;;;;;30.53;32.28;99582.34;4414275;32;20008;-67
2022/07/25 04:43:20;;;;;;;;;;;;;;;30.30;32.91;99573.25;4418025;32;19950;-67
2022/07/25 04:45:47;;;;;;;;;;;;;;;29.91;33.41;99582.34;4402515;32;19968;-67
2022/07/25 04:48:14;;;;;;;;;;;;;;;29.92;33.43;99570.12;4417060;32;20382;-67
2022/07/25 04:50:39;;;;;;;;;;;;;;;29.58;34.03;99575.19;4417666;32;20031;-67
2022/07/25 04:53:08;;;;;;;;;;;;;;;29.45;34.09;99576.31;4416596;32;20005;-67
2022/07/25 04:55:35;;;;;;;;;;;;;;;29.71;33.71;99580.66;4401201;32;19968;-67
2022/07/25 04:58:00;;;;;;;;;;;;;;;29.67;33.94;99578.22;4419195;32;20320;-67
2022/07/25 05:00:26;;;;;;;;;;;;;;;29.66;34.05;99575.91;4415316;32;20008;-67
2022/07/25 05:02:53;;;;;;;;;;;;;;;29.35;34.61;99572.56;4420839;32;20363;-67
2022/07/25 05:05:19;;;;;;;;;;;;;;;29.67;34.18;99574.53;4419798;32;20013;-67
2022/07/25 05:07:45;;;;;;;;;;;;;;;30.04;33.51;99579.03;4418987;32;20357;-67
2022/07/25 05:10:14;;;;;;;;;;;;;;;29.81;33.74;99581.47;4416461;32;19968;-67
2022/07/25 05:12:40;;;;;;;;;;;;;;;29.83;33.76;99588.25;4419778;32;20012;-67
2022/07/25 05:15:15;;;;;;;;;;;;;;;29.48;34.56;99583.06;4418364;32;20009;-67
2022/07/25 05:17:41;;;;;;;;;;;;;;;29.65;34.23;99583.84;4415128;32;19998;-67
2022/07/25 05:20:08;;;;;;;;;;;;;;;29.85;33.93;99588.38;4417143;32;19969;-67
2022/07/25 05:22:33;;;;;;;;;;;;;;;29.88;33.85;99587.19;4417503;32;20008;-67
2022/07/25 05:25:01;;;;;;;;;;;;;;;30.10;33.71;99576.63;4415225;32;19995;-67
2022/07/25 05:27:27;;;;;;;;;;;;;;;29.60;34.60;99584.06;4417560;32;20048;-67
2022/07/25 05:29:52;;;;;;;;;;;;;;;29.80;34.34;99566.25;4416959;32;20279;-67
2022/07/25 05:32:18;;;;;;;;;;;;;;;30.18;33.86;99565.66;4418921;32;20009;-68
2022/07/25 05:34:44;;;;;;;;;;;;;;;30.45;33.51;99572.25;4416348;32;20420;-67
2022/07/25 05:37:10;;;;;;;;;;;;;;;29.62;34.74;99573.44;4416588;32;19980;-67
2022/07/25 05:39:38;;;;;;;;;;;;;;;30.14;33.85;99583.53;4413336;32;19996;-67
2022/07/25 05:42:04;;;;;;;;;;;;;;;29.50;35.02;99581.09;4419261;32;20041;-67
2022/07/25 05:44:29;;;;;;;;;;;;;;;29.67;34.76;99578.22;4416288;32;19953;-67
2022/07/25 05:46:55;;;;;;;;;;;;;;;30.22;33.91;99574.75;4415720;32;20371;-67
2022/07/25 05:49:21;;;;;;;;;;;;;;;29.27;35.52;99580.59;4417478;32;20897;-67
2022/07/25 05:51:47;;;;;;;;;;;;;;;30.15;33.91;99572.69;4417828;32;20771;-67
2022/07/25 05:54:13;;;;;;;;;;;;;;;29.95;34.05;99585.56;4416114;32;20001;-67
2022/07/25 05:56:38;;;;;;;;;;;;;;;30.19;33.91;99585.41;4413970;32;20005;-67
2022/07/25 05:59:04;;;;;;;;;;;;;;;29.69;34.88;99577.62;4412662;32;20072;-67
2022/07/25 06:01:29;;;;;;;;;;;;;;;29.57;34.96;99585.28;4417090;32;19992;-67
2022/07/25 06:03:55;;;;;;;;;;;;;;;29.57;35.08;99583.13;4416170;32;20041;-67
2022/07/25 06:06:27;;;;;;;;;;;;;;;29.89;34.48;99580.03;4417139;32;20030;-67
2022/07/25 06:08:52;;;;;;;;;;;;;;;30.43;33.67;99577.91;4414400;32;19957;-67
2022/07/25 06:11:18;;;;;;;;;;;;;;;30.18;33.81;99589.69;4416829;32;20029;-67
2022/07/25 06:13:43;;;;;;;;;;;;;;;30.04;34.02;99582.72;4415641;32;19993;-67
2022/07/25 06:16:09;;;;;;;;;;;;;;;30.23;33.66;99591.56;4414618;32;20009;-67
2022/07/25 06:18:34;;;;;;;;;;;;;;;30.49;33.35;99593.66;4414857;32;19961;-67
2022/07/25 06:21:00;;;;;;;;;;;;;;;30.69;32.81;99597.41;4415944;32;20342;-68
2022/07/25 06:23:25;;;;;;;;;;;;;;;30.83;32.49;99603.59;4417234;32;20244;-67
2022/07/25 06:25:51;;;;;;;;;;;;;;;30.60;32.89;99616.34;4414612;32;20442;-67
2022/07/25 06:28:18;;;;;;;;;;;;;;;30.82;32.63;99597.00;4415524;32;20611;-67
2022/07/25 06:30:50;;;;;;;;;;;;;;;30.58;33.09;99600.88;4418093;32;20271;-67
2022/07/25 06:33:15;;;;;;;;;;;;;;;30.68;32.95;99613.31;4416346;32;20013;-68
2022/07/25 06:35:42;;;;;;;;;;;;;;;31.01;32.51;99623.19;4416816;32;19974;-68
2022/07/25 06:38:11;;;;;;;;;;;;;;;31.10;32.59;99619.56;4414271;32;19945;-68
2022/07/25 06:40:37;;;;;;;;;;;;;;;31.20;32.17;99626.16;4413310;32;20642;-68
2022/07/25 06:43:02;;;;;;;;;;;;;;;31.50;31.88;99625.59;4413922;32;20305;-67
2022/07/25 06:45:28;;;;;;;;;;;;;;;31.56;31.79;99622.38;4416188;32;20260;-67
2022/07/25 06:47:54;;;;;;;;;;;;;;;31.03;32.40;99625.50;4415892;32;20378;-67
2022/07/25 06:50:19;;;;;;;;;;;;;;;31.18;32.21;99617.28;4412616;32;20338;-67
2022/07/25 06:52:50;;;;;;;;;;;;;;;31.41;31.60;99626.34;4420454;32;20444;-67
2022/07/25 06:55:16;;;;;;;;;;;;;;;31.51;31.82;99618.44;4412406;32;19964;-68
2022/07/25 06:57:42;;;;;;;;;;;;;;;31.43;31.63;99626.53;4414951;32;20396;-67
2022/07/25 07:00:09;;;;;;;;;;;;;;;31.46;31.82;99627.44;4412155;32;20004;-68
2022/07/25 07:02:55;;;;;;;;;;;;;;;31.46;31.88;99631.12;4418697;32;20223;-67
2022/07/25 07:05:21;;;;;;;;;;;;;;;31.79;31.28;99628.50;4414766;32;20273;-68
2022/07/25 07:07:47;;;;;;;;;;;;;;;32.32;30.63;99631.81;4417984;32;19970;-68
2022/07/25 07:10:12;;;;;;;;;;;;;;;31.99;31.09;99639.53;4414405;32;20288;-68
2022/07/25 07:12:38;;;;;;;;;;;;;;;32.06;31.13;99635.69;4417139;32;20303;-68
2022/07/25 07:15:04;;;;;;;;;;;;;;;31.86;31.33;99637.13;4412889;32;19957;-67
2022/07/25 07:17:30;;;;;;;;;;;;;;;31.64;31.66;99641.22;4417350;32;19961;-67
2022/07/25 07:19:58;;;;;;;;;;;;;;;31.38;32.26;99653.75;4415221;32;20307;-67
2022/07/25 07:22:23;;;;;;;;;;;;;;;31.46;32.34;99647.78;4415309;32;19953;-67
2022/07/25 07:24:48;;;;;;;;;;;;;;;31.85;31.82;99655.19;4412559;32;20465;-67
2022/07/25 07:27:14;;;;;;;;;;;;;;;31.94;32.11;99649.34;4415026;32;20028;-67
2022/07/25 07:29:40;;;;;;;;;;;;;;;32.17;31.89;99655.44;4414485;32;19953;-68
2022/07/25 07:32:06;;;;;;;;;;;;;;;31.86;32.13;99647.97;4411583;32;19954;-68
2022/07/25 07:34:31;;;;;;;;;;;;;;;31.86;32.13;99657.47;4416367;32;20358;-68
2022/07/25 07:36:57;;;;;;;;;;;;;;;32.05;31.95;99663.28;4415773;32;20204;-68
2022/07/25 07:39:24;;;;;;;;;;;;;;;32.55;31.31;99663.38;4416356;32;20034;-67
2022/07/25 07:41:50;;;;;;;;;;;;;;;31.45;32.71;99666.63;4417454;32;19989;-68
2022/07/25 07:44:15;;;;;;;;;;;;;;;32.15;31.61;99664.03;4415581;32;19969;-68
2022/07/25 07:46:45;;;;;;;;;;;;;;;32.38;31.43;99666.47;4413133;32;19957;-68
2022/07/25 07:49:11;;;;;;;;;;;;;;;32.47;31.11;99657.72;4414949;32;20003;-68
2022/07/25 07:51:36;;;;;;;;;;;;;;;32.39;31.32;99679.63;4413309;32;19968;-69
2022/07/25 07:56:49;;;;;;;;;;;;;;;32.20;31.20;99679.66;4414551;32;20206;-67
2022/07/25 07:59:14;;;;;;;;;;;;;;;33.26;29.68;99677.94;4413957;32;19960;-67
2022/07/25 08:01:40;;;;;;;;;;;;;;;33.30;29.42;99673.16;4413935;32;19941;-67
2022/07/25 08:04:06;;;;;;;;;;;;;;;33.89;28.55;99683.81;4412371;32;20333;-67
2022/07/25 08:06:32;;;;;;;;;;;;;;;33.87;28.54;99687.34;4414223;32;19993;-67
2022/07/25 08:08:57;;;;;;;;;;;;;;;33.67;28.36;99679.34;4415800;32;20423;-67
2022/07/25 08:11:25;;;;;;;;;;;;;;;33.81;28.12;99686.91;4413711;32;20246;-68
2022/07/25 08:13:50;;;;;;;;;;;;;;;33.18;29.09;99689.00;4412637;32;20100;-68
2022/07/25 08:16:17;;;;;;;;;;;;;;;33.82;28.30;99699.38;4416704;32;20011;-68
2022/07/25 08:18:43;;;;;;;;;;;;;;;33.66;28.48;99704.09;4415693;32;20062;-68
2022/07/25 08:21:08;;;;;;;;;;;;;;;33.91;28.20;99704.41;4417586;32;19984;-68
2022/07/25 08:23:37;;;;;;;;;;;;;;;33.25;28.79;99705.56;4418173;32;19995;-69
2022/07/25 08:26:03;;;;;;;;;;;;;;;33.50;28.87;99709.56;4417040;32;19957;-68
2022/07/25 08:28:28;;;;;;;;;;;;;;;33.08;29.20;99714.56;4418533;32;20587;-68
2022/07/25 08:30:59;;;;;;;;;;;;;;;32.67;29.67;99711.59;4416658;32;20035;-68
2022/07/25 08:33:25;;;;;;;;;;;;;;;32.08;30.37;99708.62;4416828;32;19962;-68
2022/07/25 08:35:52;;;;;;;;;;;;;;;32.92;29.43;99719.22;4416330;32;20021;-68
2022/07/25 08:38:18;;;;;;;;;;;;;;;33.00;29.27;99719.81;4417588;32;20452;-68
2022/07/25 08:40:44;;;;;;;;;;;;;;;33.13;29.05;99714.22;4418376;32;19998;-68
2022/07/25 08:43:15;;;;;;;;;;;;;;;32.72;29.59;99717.72;4418349;32;20001;-68
2022/07/25 08:45:46;;;;;;;;;;;;;;;32.95;29.30;99723.81;4417502;32;20036;-68
2022/07/25 08:48:11;;;;;;;;;;;;;;;32.95;29.16;99723.81;4417101;32;20318;-68
2022/07/25 08:50:37;;;;;;;;;;;;;;;33.10;29.29;99727.09;4417855;32;19957;-68
2022/07/25 08:53:03;;;;;;;;;;;;;;;33.35;28.97;99733.31;4416268;32;20388;-68
2022/07/25 08:55:28;;;;;;;;;;;;;;;34.19;27.84;99727.50;4415818;32;19984;-68
2022/07/25 08:57:54;;;;;;;;;;;;;;;33.86;28.05;99717.91;4404147;32;20019;-67
2022/07/25 09:00:25;;;;;;;;;;;;;;;33.71;28.10;99727.09;4415354;32;20034;-67
2022/07/25 09:02:58;;;;;;;;;;;;;;;33.91;27.98;99725.59;4416645;32;19993;-67
2022/07/25 09:05:24;;;;;;;;;;;;;;;33.99;27.75;99731.22;4415919;32;20320;-67
2022/07/25 09:07:51;;;;;;;;;;;;;;;34.57;27.18;99731.47;4415941;32;20306;-67
2022/07/25 09:10:20;;;;;;;;;;;;;;;34.24;27.34;99743.16;4416038;32;20004;-67
2022/07/25 09:12:55;;;;;;;;;;;;;;;33.36;28.62;99729.00;4417921;32;20332;-68
2022/07/25 09:15:23;;;;;;;;;;;;;;;34.00;27.68;99739.34;4416992;32;19982;-68
2022/07/25 09:17:51;;;;;;;;;;;;;;;33.42;28.61;99749.87;4412998;32;19980;-68
2022/07/25 09:20:20;;;;;;;;;;;;;;;33.39;28.71;99739.44;4418712;32;20110;-68
2022/07/25 09:22:46;;;;;;;;;;;;;;;32.62;29.68;99732.34;4420520;32;19983;-68
2022/07/25 09:25:19;;;;;;;;;;;;;;;33.29;28.98;99747.47;4416127;32;19982;-68
2022/07/25 09:27:45;;;;;;;;;;;;;;;33.40;28.83;99740.97;4417677;32;19988;-68
2022/07/25 09:30:13;;;;;;;;;;;;;;;33.26;29.21;99739.16;4417007;32;20001;-68
2022/07/25 09:32:42;;;;;;;;;;;;;;;33.24;29.27;99762.34;4415682;32;19993;-68
2022/07/25 09:35:08;;;;;;;;;;;;;;;33.25;29.37;99747.16;4419006;32;20405;-68
2022/07/25 09:37:33;;;;;;;;;;;;;;;33.41;28.97;99753.41;4415955;32;19968;-68
2022/07/25 09:39:59;;;;;;;;;;;;;;;33.09;29.53;99759.81;4415126;32;20039;-68
2022/07/25 09:42:26;;;;;;;;;;;;;;;32.94;29.73;99771.84;4416681;32;19992;-68
2022/07/25 09:45:11;;;;;;;;;;;;;;;32.61;29.97;99769.44;4415352;32;19997;-68
2022/07/25 09:47:48;;;;;;;;;;;;;;;33.19;29.09;99772.97;4418945;32;20259;-68
2022/07/25 09:50:15;;;;;;;;;;;;;;;33.18;29.17;99767.75;4416841;32;19989;-68
2022/07/25 09:52:43;;;;;;;;;;;;;;;33.70;28.54;99774.41;4415860;32;20000;-68
2022/07/25 09:55:10;;;;;;;;;;;;;;;34.27;27.88;99786.44;4416762;32;20004;-67
2022/07/25 09:57:36;;;;;;;;;;;;;;;33.25;29.34;99775.56;4418029;32;20100;-68
2022/07/25 10:00:04;;;;;;;;;;;;;;;34.28;28.02;99802.59;4419052;32;20310;-68
2022/07/25 10:05:12;;;;;;;;;;;;;;;34.70;28.37;99803.94;3957586;32;15776420;-68
2022/07/25 10:07:41;;;;;;;;;;;;;;;34.70;28.37;99803.94;4437136;32;20054;-68
2022/07/25 10:10:06;;;;;;;;;;;;;;;33.71;29.47;99799.31;4432938;32;19996;-68
2022/07/25 10:12:32;;;;;;;;;;;;;;;33.95;30.29;99812.69;4436585;32;20009;-68
2022/07/25 10:15:13;;;;;;;;;;;;;;;33.44;31.61;99817.09;4431790;32;19997;-68
2022/07/25 10:17:39;;;;;;;;;;;;;;;33.61;30.99;99819.00;4436467;32;19967;-68
2022/07/25 10:20:06;;;;;;;;;;;;;;;32.93;31.64;99819.84;4427119;32;20016;-68
2022/07/25 10:22:39;;;;;;;;;;;;;;;33.54;30.49;99822.88;4434295;32;19988;-68
2022/07/25 10:25:08;;;;;;;;;;;;;;;33.91;29.82;99824.09;4434597;32;19989;-68
2022/07/25 10:27:40;;;;;;;;;;;;;;;34.65;28.57;99829.22;4436854;32;19949;-68
2022/07/25 10:30:09;;;;;;;;;;;;;;;34.71;28.28;99823.75;4434454;32;20368;-68
2022/07/25 10:32:35;;;;;;;;;;;;;;;35.66;27.48;99821.94;4426667;32;20018;-68
2022/07/25 10:35:10;;;;;;;;;;;;;;;35.32;27.35;99828.50;4435224;32;19988;-68
2022/07/25 10:37:36;;;;;;;;;;;;;;;36.07;26.02;99823.03;4435132;32;19949;-68
2022/07/25 10:40:02;;;;;;;;;;;;;;;35.74;26.48;99820.25;4433890;32;20042;-68
2022/07/25 10:42:31;;;;;;;;;;;;;;;35.24;26.80;99834.59;4433814;32;20016;-68
2022/07/25 10:45:00;;;;;;;;;;;;;;;35.81;26.24;99833.94;4433699;32;20219;-68
2022/07/25 10:47:26;;;;;;;;;;;;;;;35.67;26.33;99847.63;4433264;32;20077;-68
2022/07/25 10:49:56;;;;;;;;;;;;;;;36.30;25.54;99843.53;4436030;32;19989;-68
2022/07/25 10:52:26;;;;;;;;;;;;;;;36.54;25.30;99838.34;4434764;32;19962;-68
2022/07/25 10:54:54;;;;;;;;;;;;;;;36.58;25.00;99838.59;4434151;32;20102;-68
2022/07/25 10:57:20;;;;;;;;;;;;;;;36.81;24.67;99838.53;4434511;32;19963;-68
2022/07/25 10:59:45;;;;;;;;;;;;;;;37.29;24.13;99845.00;4436957;32;20290;-68
2022/07/25 11:02:15;;;;;;;;;;;;;;;37.75;23.57;99852.72;4433504;32;19953;-68
2022/07/25 11:04:40;;;;;;;;;;;;;;;37.54;23.72;99855.94;4435159;32;20480;-68
2022/07/25 11:07:08;;;;;;;;;;;;;;;38.88;22.24;99877.09;4436313;32;20008;-68
2022/07/25 11:09:34;;;;;;;;;;;;;;;38.05;22.84;99872.00;4435916;32;20040;-69
2022/07/25 11:12:00;;;;;;;;;;;;;;;38.87;22.45;99878.53;4434078;32;21034;-69
2022/07/25 11:17:21;;;;;;;;;;;;;;;35.57;26.14;99896.00;3951530;32;15723660;-69
2022/07/25 11:19:54;;;;;;;;;;;;;;;35.57;26.14;99896.00;4412273;32;19950;-67
2022/07/25 11:22:20;;;;;;;;;;;;;;;36.03;25.53;99879.22;4428690;32;20004;-68
2022/07/25 11:24:46;;;;;;;;;;;;;;;35.64;25.66;99881.09;4425394;32;19950;-68
2022/07/25 11:27:19;;;;;;;;;;;;;;;35.91;25.23;99881.41;4430970;32;19962;-69
2022/07/25 11:29:44;;;;;;;;;;;;;;;36.05;25.04;99873.47;4427649;32;20038;-69
2022/07/25 11:32:10;;;;;;;;;;;;;;;36.28;25.11;99871.97;4428699;32;20449;-69
2022/07/25 11:34:37;;;;;;;;;;;;;;;35.71;25.86;99874.22;4425488;32;20308;-68
2022/07/25 11:37:05;;;;;;;;;;;;;;;34.35;27.46;99871.72;4428105;32;19954;-68
2022/07/25 11:39:31;;;;;;;;;;;;;;;34.90;26.82;99873.31;4425820;32;20606;-69
2022/07/25 11:41:58;;;;;;;;;;;;;;;36.06;25.54;99880.09;4428335;32;20001;-69
2022/07/25 11:47:08;;;;;;;;;;;;;;;37.70;22.83;99889.16;3950653;32;15722593;-68
2022/07/25 11:49:49;;;;;;;;;;;;;;;37.70;22.83;99889.16;4433974;32;20288;-68
2022/07/25 11:52:20;;;;;;;;;;;;;;;37.51;23.06;99898.31;4434552;32;20013;-68
2022/07/25 11:54:53;;;;;;;;;;;;;;;38.10;22.40;99896.50;4434391;32;20361;-68
2022/07/25 11:57:20;;;;;;;;;;;;;;;38.04;22.35;99899.09;4432673;32;19996;-68
2022/07/25 11:59:45;;;;;;;;;;;;;;;38.16;22.23;99894.63;4432689;32;20600;-68
2022/07/25 12:02:19;;;;;;;;;;;;;;;39.78;20.64;99890.41;4435613;32;20018;-68
2022/07/25 12:04:52;;;;;;;;;;;;;;;39.02;20.75;99910.97;4432217;32;19996;-68
2022/07/25 12:07:17;;;;;;;;;;;;;;;38.05;21.95;99889.63;4432588;32;20299;-68
2022/07/25 12:09:43;;;;;;;;;;;;;;;38.26;21.69;99904.00;4435036;32;20323;-68
2022/07/25 12:12:08;;;;;;;;;;;;;;;38.63;21.32;99903.75;4434663;32;20539;-68
2022/07/25 12:14:42;;;;;;;;;;;;;;;38.80;21.41;99900.25;4434092;32;20583;-68
2022/07/25 12:17:07;;;;;;;;;;;;;;;38.54;21.48;99905.53;4432498;32;19965;-68
2022/07/25 12:19:33;;;;;;;;;;;;;;;38.91;21.07;99908.16;4434975;32;19989;-68
2022/07/25 12:21:58;;;;;;;;;;;;;;;39.11;20.94;99935.69;4436266;32;19995;-68
2022/07/25 12:24:24;;;;;;;;;;;;;;;38.41;21.42;99935.69;4433493;32;20391;-68
2022/07/25 12:26:49;;;;;;;;;;;;;;;37.93;22.34;99930.09;4429949;32;19956;-68
2022/07/25 12:29:14;;;;;;;;;;;;;;;38.09;22.35;99942.75;4433720;32;19969;-68
2022/07/25 12:31:40;;;;;;;;;;;;;;;36.88;23.46;99972.38;4434069;32;19985;-68
2022/07/25 12:34:05;;;;;;;;;;;;;;;35.65;24.23;99964.59;4433967;32;20349;-68
2022/07/25 12:36:33;;;;;;;;;;;;;;;35.85;23.81;99968.88;4431965;32;19945;-69
2022/07/25 12:38:58;;;;;;;;;;;;;;;35.94;23.70;99953.34;4434653;32;20245;-68
2022/07/25 12:41:24;;;;;;;;;;;;;;;36.14;23.40;99965.56;4434747;32;20030;-68
2022/07/25 12:43:49;;;;;;;;;;;;;;;36.62;23.23;99956.13;4434007;32;19993;-68
2022/07/25 12:46:15;;;;;;;;;;;;;;;36.94;22.70;99969.81;4435418;32;20034;-68
2022/07/25 12:48:41;;;;;;;;;;;;;;;37.45;22.22;99980.94;4432889;32;20352;-68
2022/07/25 12:51:06;;;;;;;;;;;;;;;36.72;23.32;99983.09;4433450;32;19981;-69
2022/07/25 12:53:32;;;;;;;;;;;;;;;36.68;23.41;99992.41;4431409;32;19985;-68